sensor_id;sensor_type;location;lat;lon;timestamp;P1;durP1;ratioP1;P2;durP2;ratioP2
4106;SDS011;21906;50.812;7.132;2024-03-08T00:00:52;28.57;;;17.77;;
4106;SDS011;21906;50.812;7.132;2024-03-08T00:03:18;24.20;;;16.40;;
4106;SDS011;21906;50.812;7.132;2024-03-08T00:05:44;27.93;;;17.27;;
4106;SDS011;21906;50.812;7.132;2024-03-08T00:08:09;27.27;;;16.70;;
4106;SDS011;21906;50.812;7.132;2024-03-08T00:10:35;29.73;;;16.60;;
4106;SDS011;21906;50.812;7.132;2024-03-08T00:13:01;27.20;;;17.80;;
4106;SDS011;21906;50.812;7.132;2024-03-08T00:15:29;27.77;;;17.50;;
4106;SDS011;21906;50.812;7.132;2024-03-08T00:17:57;25.87;;;16.13;;
4106;SDS011;21906;50.812;7.132;2024-03-08T00:20:26;24.47;;;15.50;;
4106;SDS011;21906;50.812;7.132;2024-03-08T00:22:51;26.30;;;17.17;;
4106;SDS011;21906;50.812;7.132;2024-03-08T00:25:17;27.63;;;17.20;;
4106;SDS011;21906;50.812;7.132;2024-03-08T00:27:43;26.13;;;15.87;;
4106;SDS011;21906;50.812;7.132;2024-03-08T00:30:09;24.00;;;16.00;;
4106;SDS011;21906;50.812;7.132;2024-03-08T00:32:38;23.03;;;15.90;;
4106;SDS011;21906;50.812;7.132;2024-03-08T00:35:03;25.57;;;16.27;;
4106;SDS011;21906;50.812;7.132;2024-03-08T00:37:32;27.23;;;16.43;;
4106;SDS011;21906;50.812;7.132;2024-03-08T00:39:59;28.87;;;16.77;;
4106;SDS011;21906;50.812;7.132;2024-03-08T00:42:25;27.20;;;16.30;;
4106;SDS011;21906;50.812;7.132;2024-03-08T00:44:50;29.27;;;17.83;;
4106;SDS011;21906;50.812;7.132;2024-03-08T00:47:16;23.63;;;16.53;;
4106;SDS011;21906;50.812;7.132;2024-03-08T00:49:42;25.50;;;16.60;;
4106;SDS011;21906;50.812;7.132;2024-03-08T00:52:08;25.03;;;16.20;;
4106;SDS011;21906;50.812;7.132;2024-03-08T00:54:34;28.13;;;17.10;;
4106;SDS011;21906;50.812;7.132;2024-03-08T00:57:03;27.23;;;16.40;;
4106;SDS011;21906;50.812;7.132;2024-03-08T00:59:29;26.00;;;15.87;;
4106;SDS011;21906;50.812;7.132;2024-03-08T01:01:59;29.70;;;16.87;;
4106;SDS011;21906;50.812;7.132;2024-03-08T01:04:25;24.30;;;16.00;;
4106;SDS011;21906;50.812;7.132;2024-03-08T01:06:53;28.63;;;17.50;;
4106;SDS011;21906;50.812;7.132;2024-03-08T01:09:23;23.97;;;16.13;;
4106;SDS011;21906;50.812;7.132;2024-03-08T01:11:49;24.93;;;15.70;;
4106;SDS011;21906;50.812;7.132;2024-03-08T01:14:15;25.47;;;16.43;;
4106;SDS011;21906;50.812;7.132;2024-03-08T01:16:40;27.40;;;15.93;;
4106;SDS011;21906;50.812;7.132;2024-03-08T01:19:06;26.33;;;16.90;;
4106;SDS011;21906;50.812;7.132;2024-03-08T01:21:32;24.10;;;15.47;;
4106;SDS011;21906;50.812;7.132;2024-03-08T01:23:58;30.23;;;17.20;;
4106;SDS011;21906;50.812;7.132;2024-03-08T01:26:24;25.70;;;16.40;;
4106;SDS011;21906;50.812;7.132;2024-03-08T01:28:49;26.57;;;17.03;;
4106;SDS011;21906;50.812;7.132;2024-03-08T01:31:15;26.90;;;16.07;;
4106;SDS011;21906;50.812;7.132;2024-03-08T01:33:41;25.63;;;16.67;;
4106;SDS011;21906;50.812;7.132;2024-03-08T01:36:07;27.27;;;17.07;;
4106;SDS011;21906;50.812;7.132;2024-03-08T01:38:33;26.70;;;17.57;;
4106;SDS011;21906;50.812;7.132;2024-03-08T01:41:01;27.07;;;17.30;;
4106;SDS011;21906;50.812;7.132;2024-03-08T01:43:29;28.57;;;16.53;;
4106;SDS011;21906;50.812;7.132;2024-03-08T01:45:58;28.93;;;17.00;;
4106;SDS011;21906;50.812;7.132;2024-03-08T01:48:29;24.13;;;15.77;;
4106;SDS011;21906;50.812;7.132;2024-03-08T01:50:58;24.93;;;16.67;;
4106;SDS011;21906;50.812;7.132;2024-03-08T01:53:25;28.57;;;17.20;;
4106;SDS011;21906;50.812;7.132;2024-03-08T01:55:53;32.23;;;17.37;;
4106;SDS011;21906;50.812;7.132;2024-03-08T01:58:21;24.67;;;15.93;;
4106;SDS011;21906;50.812;7.132;2024-03-08T02:00:48;27.17;;;16.20;;
4106;SDS011;21906;50.812;7.132;2024-03-08T02:03:17;26.90;;;16.53;;
4106;SDS011;21906;50.812;7.132;2024-03-08T02:05:43;27.27;;;16.40;;
4106;SDS011;21906;50.812;7.132;2024-03-08T02:08:09;28.70;;;18.00;;
4106;SDS011;21906;50.812;7.132;2024-03-08T02:10:41;21.93;;;15.13;;
4106;SDS011;21906;50.812;7.132;2024-03-08T02:13:08;27.77;;;16.40;;
4106;SDS011;21906;50.812;7.132;2024-03-08T02:15:53;26.50;;;16.43;;
4106;SDS011;21906;50.812;7.132;2024-03-08T02:18:21;28.17;;;15.90;;
4106;SDS011;21906;50.812;7.132;2024-03-08T02:23:23;27.73;;;17.50;;
4106;SDS011;21906;50.812;7.132;2024-03-08T02:25:50;26.10;;;15.43;;
4106;SDS011;21906;50.812;7.132;2024-03-08T02:28:16;26.33;;;15.80;;
4106;SDS011;21906;50.812;7.132;2024-03-08T02:30:47;25.43;;;16.30;;
4106;SDS011;21906;50.812;7.132;2024-03-08T02:33:16;25.33;;;16.30;;
4106;SDS011;21906;50.812;7.132;2024-03-08T02:35:43;28.40;;;17.03;;
4106;SDS011;21906;50.812;7.132;2024-03-08T02:38:18;27.70;;;16.77;;
4106;SDS011;21906;50.812;7.132;2024-03-08T02:40:45;27.20;;;16.63;;
4106;SDS011;21906;50.812;7.132;2024-03-08T02:43:12;28.47;;;16.03;;
4106;SDS011;21906;50.812;7.132;2024-03-08T02:45:39;30.10;;;16.03;;
4106;SDS011;21906;50.812;7.132;2024-03-08T02:48:07;27.50;;;16.30;;
4106;SDS011;21906;50.812;7.132;2024-03-08T02:50:33;27.07;;;16.00;;
4106;SDS011;21906;50.812;7.132;2024-03-08T02:53:02;26.63;;;15.70;;
4106;SDS011;21906;50.812;7.132;2024-03-08T02:55:28;29.80;;;18.33;;
4106;SDS011;21906;50.812;7.132;2024-03-08T02:57:55;27.10;;;17.03;;
4106;SDS011;21906;50.812;7.132;2024-03-08T03:00:21;27.43;;;17.47;;
4106;SDS011;21906;50.812;7.132;2024-03-08T03:02:51;25.60;;;16.47;;
4106;SDS011;21906;50.812;7.132;2024-03-08T03:05:20;26.10;;;16.73;;
4106;SDS011;21906;50.812;7.132;2024-03-08T03:07:46;25.80;;;15.67;;
4106;SDS011;21906;50.812;7.132;2024-03-08T03:10:12;26.20;;;15.87;;
4106;SDS011;21906;50.812;7.132;2024-03-08T03:12:41;26.00;;;16.03;;
4106;SDS011;21906;50.812;7.132;2024-03-08T03:15:08;31.10;;;16.80;;
4106;SDS011;21906;50.812;7.132;2024-03-08T03:17:35;27.03;;;17.20;;
4106;SDS011;21906;50.812;7.132;2024-03-08T03:20:01;27.70;;;16.60;;
4106;SDS011;21906;50.812;7.132;2024-03-08T03:22:34;25.57;;;16.03;;
4106;SDS011;21906;50.812;7.132;2024-03-08T03:25:00;28.37;;;16.80;;
4106;SDS011;21906;50.812;7.132;2024-03-08T03:27:25;28.57;;;17.13;;
4106;SDS011;21906;50.812;7.132;2024-03-08T03:29:51;27.97;;;16.23;;
4106;SDS011;21906;50.812;7.132;2024-03-08T03:32:17;27.50;;;16.70;;
4106;SDS011;21906;50.812;7.132;2024-03-08T03:34:43;27.57;;;15.87;;
4106;SDS011;21906;50.812;7.132;2024-03-08T03:37:09;26.90;;;16.63;;
4106;SDS011;21906;50.812;7.132;2024-03-08T03:39:39;24.63;;;16.30;;
4106;SDS011;21906;50.812;7.132;2024-03-08T03:42:16;29.37;;;17.60;;
4106;SDS011;21906;50.812;7.132;2024-03-08T03:44:46;26.50;;;16.30;;
4106;SDS011;21906;50.812;7.132;2024-03-08T03:47:13;28.00;;;16.83;;
4106;SDS011;21906;50.812;7.132;2024-03-08T03:49:39;26.47;;;15.70;;
4106;SDS011;21906;50.812;7.132;2024-03-08T03:52:08;29.97;;;16.60;;
4106;SDS011;21906;50.812;7.132;2024-03-08T03:54:35;25.67;;;16.40;;
4106;SDS011;21906;50.812;7.132;2024-03-08T03:57:01;25.67;;;16.30;;
4106;SDS011;21906;50.812;7.132;2024-03-08T03:59:27;28.70;;;16.87;;
4106;SDS011;21906;50.812;7.132;2024-03-08T04:01:53;27.00;;;16.90;;
4106;SDS011;21906;50.812;7.132;2024-03-08T04:04:20;28.20;;;17.10;;
4106;SDS011;21906;50.812;7.132;2024-03-08T04:06:46;29.07;;;16.57;;
4106;SDS011;21906;50.812;7.132;2024-03-08T04:09:12;32.37;;;17.10;;
4106;SDS011;21906;50.812;7.132;2024-03-08T04:11:39;31.20;;;17.07;;
4106;SDS011;21906;50.812;7.132;2024-03-08T04:14:04;26.40;;;16.40;;
4106;SDS011;21906;50.812;7.132;2024-03-08T04:16:30;26.00;;;15.80;;
4106;SDS011;21906;50.812;7.132;2024-03-08T04:18:57;29.90;;;16.27;;
4106;SDS011;21906;50.812;7.132;2024-03-08T04:21:23;26.07;;;16.80;;
4106;SDS011;21906;50.812;7.132;2024-03-08T04:23:49;30.10;;;17.17;;
4106;SDS011;21906;50.812;7.132;2024-03-08T04:26:15;29.33;;;16.40;;
4106;SDS011;21906;50.812;7.132;2024-03-08T04:28:40;25.13;;;15.57;;
4106;SDS011;21906;50.812;7.132;2024-03-08T04:31:06;27.93;;;16.93;;
4106;SDS011;21906;50.812;7.132;2024-03-08T04:33:32;25.50;;;16.50;;
4106;SDS011;21906;50.812;7.132;2024-03-08T04:36:00;29.33;;;17.00;;
4106;SDS011;21906;50.812;7.132;2024-03-08T04:38:29;29.10;;;17.43;;
4106;SDS011;21906;50.812;7.132;2024-03-08T04:40:55;31.80;;;17.37;;
4106;SDS011;21906;50.812;7.132;2024-03-08T04:43:22;27.97;;;16.13;;
4106;SDS011;21906;50.812;7.132;2024-03-08T04:45:50;31.10;;;16.60;;
4106;SDS011;21906;50.812;7.132;2024-03-08T04:48:16;26.80;;;16.27;;
4106;SDS011;21906;50.812;7.132;2024-03-08T04:50:42;29.63;;;16.40;;
4106;SDS011;21906;50.812;7.132;2024-03-08T04:53:09;28.30;;;16.40;;
4106;SDS011;21906;50.812;7.132;2024-03-08T04:55:35;30.20;;;16.73;;
4106;SDS011;21906;50.812;7.132;2024-03-08T04:58:02;29.87;;;16.50;;
4106;SDS011;21906;50.812;7.132;2024-03-08T05:00:29;30.10;;;16.07;;
4106;SDS011;21906;50.812;7.132;2024-03-08T05:02:55;27.70;;;16.20;;
4106;SDS011;21906;50.812;7.132;2024-03-08T05:05:20;29.20;;;17.20;;
4106;SDS011;21906;50.812;7.132;2024-03-08T05:07:47;26.23;;;15.77;;
4106;SDS011;21906;50.812;7.132;2024-03-08T05:10:13;30.73;;;17.13;;
4106;SDS011;21906;50.812;7.132;2024-03-08T05:12:42;30.93;;;17.00;;
4106;SDS011;21906;50.812;7.132;2024-03-08T05:15:08;29.73;;;17.30;;
4106;SDS011;21906;50.812;7.132;2024-03-08T05:17:34;27.33;;;16.20;;
4106;SDS011;21906;50.812;7.132;2024-03-08T05:20:00;30.30;;;16.90;;
4106;SDS011;21906;50.812;7.132;2024-03-08T05:22:26;30.97;;;16.83;;
4106;SDS011;21906;50.812;7.132;2024-03-08T05:24:51;32.57;;;17.73;;
4106;SDS011;21906;50.812;7.132;2024-03-08T05:27:17;31.63;;;17.60;;
4106;SDS011;21906;50.812;7.132;2024-03-08T05:29:43;33.40;;;17.87;;
4106;SDS011;21906;50.812;7.132;2024-03-08T05:32:08;31.53;;;17.50;;
4106;SDS011;21906;50.812;7.132;2024-03-08T05:34:35;30.17;;;17.00;;
4106;SDS011;21906;50.812;7.132;2024-03-08T05:37:01;33.87;;;18.37;;
4106;SDS011;21906;50.812;7.132;2024-03-08T05:39:30;32.00;;;17.77;;
4106;SDS011;21906;50.812;7.132;2024-03-08T05:41:55;29.70;;;17.80;;
4106;SDS011;21906;50.812;7.132;2024-03-08T05:44:21;29.10;;;17.30;;
4106;SDS011;21906;50.812;7.132;2024-03-08T05:46:47;34.80;;;17.80;;
4106;SDS011;21906;50.812;7.132;2024-03-08T05:49:13;31.70;;;16.80;;
4106;SDS011;21906;50.812;7.132;2024-03-08T05:51:39;27.80;;;17.77;;
4106;SDS011;21906;50.812;7.132;2024-03-08T05:54:06;30.60;;;17.70;;
4106;SDS011;21906;50.812;7.132;2024-03-08T05:56:36;32.73;;;18.70;;
4106;SDS011;21906;50.812;7.132;2024-03-08T05:59:03;30.80;;;17.20;;
4106;SDS011;21906;50.812;7.132;2024-03-08T06:01:29;31.80;;;17.70;;
4106;SDS011;21906;50.812;7.132;2024-03-08T06:03:56;30.57;;;17.37;;
4106;SDS011;21906;50.812;7.132;2024-03-08T06:06:22;34.93;;;18.57;;
4106;SDS011;21906;50.812;7.132;2024-03-08T06:08:49;35.87;;;18.30;;
4106;SDS011;21906;50.812;7.132;2024-03-08T06:11:15;35.60;;;18.60;;
4106;SDS011;21906;50.812;7.132;2024-03-08T06:13:48;31.90;;;18.47;;
4106;SDS011;21906;50.812;7.132;2024-03-08T06:16:15;32.50;;;18.13;;
4106;SDS011;21906;50.812;7.132;2024-03-08T06:18:41;29.63;;;18.30;;
4106;SDS011;21906;50.812;7.132;2024-03-08T06:21:12;30.77;;;17.40;;
4106;SDS011;21906;50.812;7.132;2024-03-08T06:23:38;32.90;;;18.33;;
4106;SDS011;21906;50.812;7.132;2024-03-08T06:26:04;32.50;;;18.20;;
4106;SDS011;21906;50.812;7.132;2024-03-08T06:28:30;31.23;;;17.13;;
4106;SDS011;21906;50.812;7.132;2024-03-08T06:30:57;33.90;;;18.80;;
4106;SDS011;21906;50.812;7.132;2024-03-08T06:33:26;32.83;;;18.10;;
4106;SDS011;21906;50.812;7.132;2024-03-08T06:35:53;30.97;;;17.70;;
4106;SDS011;21906;50.812;7.132;2024-03-08T06:38:22;32.40;;;18.10;;
4106;SDS011;21906;50.812;7.132;2024-03-08T06:40:54;32.90;;;17.73;;
4106;SDS011;21906;50.812;7.132;2024-03-08T06:43:19;34.50;;;18.20;;
4106;SDS011;21906;50.812;7.132;2024-03-08T06:45:46;35.10;;;19.93;;
4106;SDS011;21906;50.812;7.132;2024-03-08T06:48:17;33.03;;;18.93;;
4106;SDS011;21906;50.812;7.132;2024-03-08T06:50:47;34.40;;;19.47;;
4106;SDS011;21906;50.812;7.132;2024-03-08T06:53:13;40.10;;;20.50;;
4106;SDS011;21906;50.812;7.132;2024-03-08T06:55:39;38.80;;;19.23;;
4106;SDS011;21906;50.812;7.132;2024-03-08T06:58:05;31.37;;;18.20;;
4106;SDS011;21906;50.812;7.132;2024-03-08T07:00:32;31.57;;;17.73;;
4106;SDS011;21906;50.812;7.132;2024-03-08T07:02:58;33.23;;;19.60;;
4106;SDS011;21906;50.812;7.132;2024-03-08T07:05:34;29.43;;;17.50;;
4106;SDS011;21906;50.812;7.132;2024-03-08T07:08:01;30.70;;;17.87;;
4106;SDS011;21906;50.812;7.132;2024-03-08T07:10:28;35.43;;;19.27;;
4106;SDS011;21906;50.812;7.132;2024-03-08T07:12:54;33.00;;;18.50;;
4106;SDS011;21906;50.812;7.132;2024-03-08T07:15:20;34.90;;;20.10;;
4106;SDS011;21906;50.812;7.132;2024-03-08T07:17:46;31.50;;;18.00;;
4106;SDS011;21906;50.812;7.132;2024-03-08T07:20:15;30.27;;;18.17;;
4106;SDS011;21906;50.812;7.132;2024-03-08T07:22:44;33.43;;;18.37;;
4106;SDS011;21906;50.812;7.132;2024-03-08T07:25:15;34.10;;;17.90;;
4106;SDS011;21906;50.812;7.132;2024-03-08T07:27:53;35.70;;;18.87;;
4106;SDS011;21906;50.812;7.132;2024-03-08T07:30:20;32.23;;;18.67;;
4106;SDS011;21906;50.812;7.132;2024-03-08T07:33:06;37.70;;;18.80;;
4106;SDS011;21906;50.812;7.132;2024-03-08T07:35:32;34.57;;;18.70;;
4106;SDS011;21906;50.812;7.132;2024-03-08T07:38:02;33.90;;;19.37;;
4106;SDS011;21906;50.812;7.132;2024-03-08T07:40:36;36.40;;;19.40;;
4106;SDS011;21906;50.812;7.132;2024-03-08T07:43:09;35.17;;;17.93;;
4106;SDS011;21906;50.812;7.132;2024-03-08T07:45:36;37.40;;;19.50;;
4106;SDS011;21906;50.812;7.132;2024-03-08T07:48:02;31.87;;;18.43;;
4106;SDS011;21906;50.812;7.132;2024-03-08T07:50:34;32.87;;;18.50;;
4106;SDS011;21906;50.812;7.132;2024-03-08T07:53:04;32.03;;;18.70;;
4106;SDS011;21906;50.812;7.132;2024-03-08T07:55:36;32.47;;;18.83;;
4106;SDS011;21906;50.812;7.132;2024-03-08T07:58:02;29.80;;;17.20;;
4106;SDS011;21906;50.812;7.132;2024-03-08T08:00:29;30.27;;;17.80;;
4106;SDS011;21906;50.812;7.132;2024-03-08T08:02:56;32.03;;;18.27;;
4106;SDS011;21906;50.812;7.132;2024-03-08T08:05:22;29.60;;;18.30;;
4106;SDS011;21906;50.812;7.132;2024-03-08T08:07:48;33.40;;;18.83;;
4106;SDS011;21906;50.812;7.132;2024-03-08T08:10:15;34.27;;;18.50;;
4106;SDS011;21906;50.812;7.132;2024-03-08T08:12:47;29.70;;;17.50;;
4106;SDS011;21906;50.812;7.132;2024-03-08T08:15:13;31.13;;;18.37;;
4106;SDS011;21906;50.812;7.132;2024-03-08T08:17:43;31.20;;;17.27;;
4106;SDS011;21906;50.812;7.132;2024-03-08T08:20:09;28.87;;;17.20;;
4106;SDS011;21906;50.812;7.132;2024-03-08T08:22:37;31.60;;;17.77;;
4106;SDS011;21906;50.812;7.132;2024-03-08T08:25:04;30.87;;;17.97;;
4106;SDS011;21906;50.812;7.132;2024-03-08T08:27:30;29.40;;;17.93;;
4106;SDS011;21906;50.812;7.132;2024-03-08T08:29:55;34.43;;;17.87;;
4106;SDS011;21906;50.812;7.132;2024-03-08T08:32:24;29.23;;;18.13;;
4106;SDS011;21906;50.812;7.132;2024-03-08T08:34:50;29.53;;;17.73;;
4106;SDS011;21906;50.812;7.132;2024-03-08T08:37:17;28.00;;;17.10;;
4106;SDS011;21906;50.812;7.132;2024-03-08T08:39:43;30.80;;;17.60;;
4106;SDS011;21906;50.812;7.132;2024-03-08T08:42:09;28.10;;;17.93;;
4106;SDS011;21906;50.812;7.132;2024-03-08T08:44:36;28.43;;;16.80;;
4106;SDS011;21906;50.812;7.132;2024-03-08T08:47:02;29.30;;;18.30;;
4106;SDS011;21906;50.812;7.132;2024-03-08T08:49:28;26.50;;;16.30;;
4106;SDS011;21906;50.812;7.132;2024-03-08T08:51:55;25.07;;;16.37;;
4106;SDS011;21906;50.812;7.132;2024-03-08T08:54:23;33.33;;;17.20;;
4106;SDS011;21906;50.812;7.132;2024-03-08T08:56:50;28.73;;;17.13;;
4106;SDS011;21906;50.812;7.132;2024-03-08T08:59:16;26.60;;;16.47;;
4106;SDS011;21906;50.812;7.132;2024-03-08T09:01:44;29.50;;;16.57;;
4106;SDS011;21906;50.812;7.132;2024-03-08T09:04:13;29.27;;;16.43;;
4106;SDS011;21906;50.812;7.132;2024-03-08T09:06:39;25.20;;;15.80;;
4106;SDS011;21906;50.812;7.132;2024-03-08T09:09:08;26.43;;;16.10;;
4106;SDS011;21906;50.812;7.132;2024-03-08T09:11:36;25.90;;;16.37;;
4106;SDS011;21906;50.812;7.132;2024-03-08T09:14:06;22.23;;;15.33;;
4106;SDS011;21906;50.812;7.132;2024-03-08T09:16:32;24.87;;;15.60;;
4106;SDS011;21906;50.812;7.132;2024-03-08T09:18:58;26.63;;;16.87;;
4106;SDS011;21906;50.812;7.132;2024-03-08T09:21:24;26.97;;;16.10;;
4106;SDS011;21906;50.812;7.132;2024-03-08T09:23:52;22.83;;;15.17;;
4106;SDS011;21906;50.812;7.132;2024-03-08T09:26:18;28.63;;;17.07;;
4106;SDS011;21906;50.812;7.132;2024-03-08T09:28:44;23.33;;;15.30;;
4106;SDS011;21906;50.812;7.132;2024-03-08T09:31:10;19.37;;;13.47;;
4106;SDS011;21906;50.812;7.132;2024-03-08T09:33:37;20.30;;;13.70;;
4106;SDS011;21906;50.812;7.132;2024-03-08T09:36:05;19.10;;;13.00;;
4106;SDS011;21906;50.812;7.132;2024-03-08T09:38:34;20.00;;;12.50;;
4106;SDS011;21906;50.812;7.132;2024-03-08T09:41:00;20.90;;;13.10;;
4106;SDS011;21906;50.812;7.132;2024-03-08T09:43:30;19.90;;;13.37;;
4106;SDS011;21906;50.812;7.132;2024-03-08T09:45:56;17.90;;;12.53;;
4106;SDS011;21906;50.812;7.132;2024-03-08T09:48:23;18.70;;;13.10;;
4106;SDS011;21906;50.812;7.132;2024-03-08T09:50:49;16.37;;;12.07;;
4106;SDS011;21906;50.812;7.132;2024-03-08T09:53:15;22.50;;;12.77;;
4106;SDS011;21906;50.812;7.132;2024-03-08T09:55:41;19.47;;;13.33;;
4106;SDS011;21906;50.812;7.132;2024-03-08T09:58:10;16.13;;;11.80;;
4106;SDS011;21906;50.812;7.132;2024-03-08T10:00:52;17.97;;;12.57;;
4106;SDS011;21906;50.812;7.132;2024-03-08T10:03:22;18.50;;;11.60;;
4106;SDS011;21906;50.812;7.132;2024-03-08T10:05:47;18.40;;;11.80;;
4106;SDS011;21906;50.812;7.132;2024-03-08T10:08:13;22.20;;;12.20;;
4106;SDS011;21906;50.812;7.132;2024-03-08T10:10:39;15.13;;;11.13;;
4106;SDS011;21906;50.812;7.132;2024-03-08T10:13:06;18.03;;;11.50;;
4106;SDS011;21906;50.812;7.132;2024-03-08T10:15:32;15.87;;;10.60;;
4106;SDS011;21906;50.812;7.132;2024-03-08T10:17:58;12.23;;;9.60;;
4106;SDS011;21906;50.812;7.132;2024-03-08T10:20:24;14.70;;;11.43;;
4106;SDS011;21906;50.812;7.132;2024-03-08T10:22:51;16.97;;;10.87;;
4106;SDS011;21906;50.812;7.132;2024-03-08T10:25:18;15.40;;;10.90;;
4106;SDS011;21906;50.812;7.132;2024-03-08T10:27:44;15.40;;;10.60;;
4106;SDS011;21906;50.812;7.132;2024-03-08T10:30:11;14.87;;;11.37;;
4106;SDS011;21906;50.812;7.132;2024-03-08T10:32:39;15.60;;;11.07;;
4106;SDS011;21906;50.812;7.132;2024-03-08T10:35:07;14.77;;;10.80;;
4106;SDS011;21906;50.812;7.132;2024-03-08T10:37:33;16.33;;;11.73;;
4106;SDS011;21906;50.812;7.132;2024-03-08T10:40:21;14.67;;;10.83;;
4106;SDS011;21906;50.812;7.132;2024-03-08T10:42:55;13.50;;;11.10;;
4106;SDS011;21906;50.812;7.132;2024-03-08T10:50:33;17.33;;;11.77;;
4106;SDS011;21906;50.812;7.132;2024-03-08T10:53:00;14.83;;;11.40;;
4106;SDS011;21906;50.812;7.132;2024-03-08T10:55:28;17.00;;;11.17;;
4106;SDS011;21906;50.812;7.132;2024-03-08T10:57:55;18.20;;;10.87;;
4106;SDS011;21906;50.812;7.132;2024-03-08T11:00:21;14.53;;;11.20;;
4106;SDS011;21906;50.812;7.132;2024-03-08T11:02:55;13.87;;;11.23;;
4106;SDS011;21906;50.812;7.132;2024-03-08T11:08:17;15.00;;;11.10;;
4106;SDS011;21906;50.812;7.132;2024-03-08T11:10:46;19.37;;;11.70;;
4106;SDS011;21906;50.812;7.132;2024-03-08T11:13:33;16.30;;;12.03;;
4106;SDS011;21906;50.812;7.132;2024-03-08T11:16:00;14.27;;;11.33;;
4106;SDS011;21906;50.812;7.132;2024-03-08T11:18:26;13.23;;;11.13;;
4106;SDS011;21906;50.812;7.132;2024-03-08T11:20:55;16.67;;;11.83;;
4106;SDS011;21906;50.812;7.132;2024-03-08T11:23:23;19.97;;;12.90;;
4106;SDS011;21906;50.812;7.132;2024-03-08T11:25:50;18.10;;;12.80;;
4106;SDS011;21906;50.812;7.132;2024-03-08T11:28:21;18.23;;;12.93;;
4106;SDS011;21906;50.812;7.132;2024-03-08T11:33:25;17.00;;;11.80;;
4106;SDS011;21906;50.812;7.132;2024-03-08T11:36:28;15.73;;;12.07;;
4106;SDS011;21906;50.812;7.132;2024-03-08T11:38:49;15.57;;;12.23;;
4106;SDS011;21906;50.812;7.132;2024-03-08T11:41:24;14.10;;;12.10;;
4106;SDS011;21906;50.812;7.132;2024-03-08T11:44:01;14.03;;;10.90;;
4106;SDS011;21906;50.812;7.132;2024-03-08T11:46:32;15.43;;;11.80;;
4106;SDS011;21906;50.812;7.132;2024-03-08T11:48:59;14.93;;;11.50;;
4106;SDS011;21906;50.812;7.132;2024-03-08T11:51:26;14.73;;;11.27;;
4106;SDS011;21906;50.812;7.132;2024-03-08T11:53:52;16.37;;;11.80;;
4106;SDS011;21906;50.812;7.132;2024-03-08T11:56:18;15.43;;;11.90;;
4106;SDS011;21906;50.812;7.132;2024-03-08T11:58:54;16.13;;;11.20;;
4106;SDS011;21906;50.812;7.132;2024-03-08T12:01:23;14.40;;;11.83;;
4106;SDS011;21906;50.812;7.132;2024-03-08T12:03:53;15.40;;;11.73;;
4106;SDS011;21906;50.812;7.132;2024-03-08T12:06:19;19.23;;;12.40;;
4106;SDS011;21906;50.812;7.132;2024-03-08T12:08:46;13.07;;;11.33;;
4106;SDS011;21906;50.812;7.132;2024-03-08T12:11:14;13.47;;;11.03;;
4106;SDS011;21906;50.812;7.132;2024-03-08T12:13:40;13.47;;;10.57;;
4106;SDS011;21906;50.812;7.132;2024-03-08T12:16:07;15.83;;;10.83;;
4106;SDS011;21906;50.812;7.132;2024-03-08T12:18:35;14.67;;;11.50;;
4106;SDS011;21906;50.812;7.132;2024-03-08T12:21:06;15.60;;;11.33;;
4106;SDS011;21906;50.812;7.132;2024-03-08T12:23:35;13.77;;;11.73;;
4106;SDS011;21906;50.812;7.132;2024-03-08T12:26:15;12.13;;;10.90;;
4106;SDS011;21906;50.812;7.132;2024-03-08T12:28:43;14.13;;;10.80;;
4106;SDS011;21906;50.812;7.132;2024-03-08T12:31:11;14.87;;;11.37;;
4106;SDS011;21906;50.812;7.132;2024-03-08T12:33:46;14.60;;;11.30;;
4106;SDS011;21906;50.812;7.132;2024-03-08T12:36:16;13.60;;;10.70;;
4106;SDS011;21906;50.812;7.132;2024-03-08T12:38:48;13.27;;;10.37;;
4106;SDS011;21906;50.812;7.132;2024-03-08T12:41:15;13.20;;;10.70;;
4106;SDS011;21906;50.812;7.132;2024-03-08T12:43:42;18.30;;;10.63;;
4106;SDS011;21906;50.812;7.132;2024-03-08T12:46:13;11.40;;;9.87;;
4106;SDS011;21906;50.812;7.132;2024-03-08T12:48:40;13.50;;;10.37;;
4106;SDS011;21906;50.812;7.132;2024-03-08T12:51:06;13.80;;;10.90;;
4106;SDS011;21906;50.812;7.132;2024-03-08T12:53:32;13.03;;;10.70;;
4106;SDS011;21906;50.812;7.132;2024-03-08T12:55:58;12.77;;;10.90;;
4106;SDS011;21906;50.812;7.132;2024-03-08T12:58:24;11.73;;;10.10;;
4106;SDS011;21906;50.812;7.132;2024-03-08T13:00:51;14.27;;;10.20;;
4106;SDS011;21906;50.812;7.132;2024-03-08T13:03:17;11.00;;;9.83;;
4106;SDS011;21906;50.812;7.132;2024-03-08T13:05:43;11.23;;;9.60;;
4106;SDS011;21906;50.812;7.132;2024-03-08T13:08:09;12.20;;;9.97;;
4106;SDS011;21906;50.812;7.132;2024-03-08T13:10:41;13.83;;;10.27;;
4106;SDS011;21906;50.812;7.132;2024-03-08T13:13:11;10.40;;;8.50;;
4106;SDS011;21906;50.812;7.132;2024-03-08T13:15:38;10.60;;;9.47;;
4106;SDS011;21906;50.812;7.132;2024-03-08T13:18:05;10.50;;;9.37;;
4106;SDS011;21906;50.812;7.132;2024-03-08T13:20:34;10.27;;;9.27;;
4106;SDS011;21906;50.812;7.132;2024-03-08T13:23:02;10.87;;;9.37;;
4106;SDS011;21906;50.812;7.132;2024-03-08T13:25:30;11.10;;;9.87;;
4106;SDS011;21906;50.812;7.132;2024-03-08T13:27:56;11.60;;;9.43;;
4106;SDS011;21906;50.812;7.132;2024-03-08T13:30:24;10.90;;;9.60;;
4106;SDS011;21906;50.812;7.132;2024-03-08T13:32:52;11.83;;;9.40;;
4106;SDS011;21906;50.812;7.132;2024-03-08T13:35:18;9.97;;;8.93;;
4106;SDS011;21906;50.812;7.132;2024-03-08T13:37:49;11.40;;;9.47;;
4106;SDS011;21906;50.812;7.132;2024-03-08T13:40:16;11.30;;;9.40;;
4106;SDS011;21906;50.812;7.132;2024-03-08T13:42:48;11.13;;;9.00;;
4106;SDS011;21906;50.812;7.132;2024-03-08T13:45:14;11.07;;;9.63;;
4106;SDS011;21906;50.812;7.132;2024-03-08T13:47:48;11.73;;;9.20;;
4106;SDS011;21906;50.812;7.132;2024-03-08T13:50:19;11.10;;;10.00;;
4106;SDS011;21906;50.812;7.132;2024-03-08T13:52:48;10.63;;;9.10;;
4106;SDS011;21906;50.812;7.132;2024-03-08T13:55:17;13.37;;;10.47;;
4106;SDS011;21906;50.812;7.132;2024-03-08T13:57:43;12.30;;;10.43;;
4106;SDS011;21906;50.812;7.132;2024-03-08T14:00:10;10.80;;;9.67;;
4106;SDS011;21906;50.812;7.132;2024-03-08T14:02:37;10.73;;;9.20;;
4106;SDS011;21906;50.812;7.132;2024-03-08T14:05:06;11.30;;;8.93;;
4106;SDS011;21906;50.812;7.132;2024-03-08T14:07:37;10.67;;;8.73;;
4106;SDS011;21906;50.812;7.132;2024-03-08T14:10:03;9.93;;;8.93;;
4106;SDS011;21906;50.812;7.132;2024-03-08T14:12:32;10.57;;;8.60;;
4106;SDS011;21906;50.812;7.132;2024-03-08T14:14:58;10.70;;;9.50;;
4106;SDS011;21906;50.812;7.132;2024-03-08T14:17:26;11.53;;;9.37;;
4106;SDS011;21906;50.812;7.132;2024-03-08T14:19:53;10.50;;;9.07;;
4106;SDS011;21906;50.812;7.132;2024-03-08T14:22:19;11.53;;;9.60;;
4106;SDS011;21906;50.812;7.132;2024-03-08T14:24:45;9.53;;;8.63;;
4106;SDS011;21906;50.812;7.132;2024-03-08T14:27:11;10.17;;;9.17;;
4106;SDS011;21906;50.812;7.132;2024-03-08T14:29:37;10.70;;;9.60;;
4106;SDS011;21906;50.812;7.132;2024-03-08T14:32:06;9.77;;;8.80;;
4106;SDS011;21906;50.812;7.132;2024-03-08T14:34:33;9.97;;;8.97;;
4106;SDS011;21906;50.812;7.132;2024-03-08T14:36:59;11.00;;;9.20;;
4106;SDS011;21906;50.812;7.132;2024-03-08T14:39:26;11.60;;;9.20;;
4106;SDS011;21906;50.812;7.132;2024-03-08T14:41:54;10.97;;;9.77;;
4106;SDS011;21906;50.812;7.132;2024-03-08T14:44:23;11.83;;;9.60;;
4106;SDS011;21906;50.812;7.132;2024-03-08T14:46:51;10.50;;;9.03;;
4106;SDS011;21906;50.812;7.132;2024-03-08T14:49:17;10.47;;;9.30;;
4106;SDS011;21906;50.812;7.132;2024-03-08T14:51:44;11.40;;;8.93;;